Time,TemperatureF,DewpointF,PressureIn,WindDirection,WindDirectionDegrees,WindSpeedMPH,WindSpeedGustMPH,Humidity,HourlyPrecipIn,Conditions,Clouds,dailyrainin,SoftwareType,DateUTC
2013-02-06 00:00:00,33.4,31.6,29.93,ENE,58,2.0,5.0,93,0.00,,,0.00,Wunderground v.1.15,2013-02-06 08:00:00,
2013-02-06 00:03:00,33.1,31.0,29.93,ENE,58,3.0,3.0,92,0.00,,,0.00,Wunderground v.1.15,2013-02-06 08:03:00,
2013-02-06 00:05:00,33.0,30.9,29.93,ENE,58,2.0,3.0,92,0.00,,,0.00,Wunderground v.1.15,2013-02-06 08:05:00,
2013-02-06 00:08:00,33.0,30.9,29.93,ENE,58,2.0,3.0,92,0.00,,,0.00,Wunderground v.1.15,2013-02-06 08:08:00,
2013-02-06 00:09:00,33.5,31.7,29.93,ENE,58,2.0,3.0,93,0.00,,,0.00,Wunderground v.1.15,2013-02-06 08:09:00,
2013-02-06 00:11:00,34.0,32.5,29.93,ENE,58,2.0,3.0,94,0.00,,,0.00,Wunderground v.1.15,2013-02-06 08:11:00,
2013-02-06 00:15:00,34.2,32.1,29.93,ENE,58,2.0,2.0,92,0.00,,,0.00,Wunderground v.1.15,2013-02-06 08:15:00,
2013-02-06 00:16:00,34.2,32.1,29.93,ENE,58,3.0,3.0,92,0.00,,,0.00,Wunderground v.1.15,2013-02-06 08:16:00,
2013-02-06 00:18:00,33.7,31.1,29.93,ENE,58,2.0,3.0,90,0.00,,,0.00,Wunderground v.1.15,2013-02-06 08:18:00,
2013-02-06 00:22:00,33.4,31.1,29.93,ENE,58,1.0,3.0,91,0.00,,,0.00,Wunderground v.1.15,2013-02-06 08:22:00,
2013-02-06 00:23:00,33.4,31.1,29.93,ENE,58,0.0,2.0,91,0.00,,,0.00,Wunderground v.1.15,2013-02-06 08:23:00,
2013-02-06 00:24:00,33.6,31.5,29.93,ENE,58,0.0,2.0,92,0.00,,,0.00,Wunderground v.1.15,2013-02-06 08:24:00,
2013-02-06 00:25:00,33.8,31.7,29.93,ENE,58,0.0,2.0,92,0.00,,,0.00,Wunderground v.1.15,2013-02-06 08:25:00,
2013-02-06 00:28:00,33.9,31.6,29.94,ENE,58,1.0,2.0,91,0.00,,,0.00,Wunderground v.1.15,2013-02-06 08:28:00,
2013-02-06 00:30:00,33.3,30.7,29.94,ENE,58,3.0,3.0,90,0.00,,,0.00,Wunderground v.1.15,2013-02-06 08:30:00,
2013-02-06 00:32:00,32.5,29.3,29.94,ENE,58,5.0,5.0,88,0.00,,,0.00,Wunderground v.1.15,2013-02-06 08:32:00,
2013-02-06 00:34:00,31.8,28.7,29.94,ENE,58,3.0,4.0,88,0.00,,,0.00,Wunderground v.1.15,2013-02-06 08:34:00,
2013-02-06 00:37:00,30.9,28.0,29.94,ENE,58,2.0,4.0,89,0.00,,,0.00,Wunderground v.1.15,2013-02-06 08:37:00,
2013-02-06 00:38:00,30.6,27.7,29.94,ENE,58,3.0,4.0,89,0.00,,,0.00,Wunderground v.1.15,2013-02-06 08:38:00,
2013-02-06 00:39:00,30.5,27.6,29.94,ENE,58,2.0,4.0,89,0.00,,,0.00,Wunderground v.1.15,2013-02-06 08:39:00,
2013-02-06 00:40:00,30.2,27.6,29.94,ENE,58,0.0,4.0,90,0.00,,,0.00,Wunderground v.1.15,2013-02-06 08:40:00,
2013-02-06 00:43:00,29.7,27.1,29.94,ENE,58,2.0,2.0,90,0.00,,,0.00,Wunderground v.1.15,2013-02-06 08:43:00,
2013-02-06 00:44:00,29.6,27.0,29.94,ENE,58,1.0,2.0,90,0.00,,,0.00,Wunderground v.1.15,2013-02-06 08:44:00,
2013-02-06 00:47:00,29.3,27.0,29.94,ENE,58,2.0,2.0,91,0.00,,,0.00,Wunderground v.1.15,2013-02-06 08:47:00,
2013-02-06 00:50:00,29.3,27.3,29.94,ENE,58,3.0,3.0,92,0.00,,,0.00,Wunderground v.1.15,2013-02-06 08:50:00,
2013-02-06 00:51:00,29.3,27.3,29.94,ENE,58,4.0,4.0,92,0.00,,,0.00,Wunderground v.1.15,2013-02-06 08:51:00,
2013-02-06 00:52:00,29.3,27.3,29.94,ENE,58,4.0,4.0,92,0.00,,,0.00,Wunderground v.1.15,2013-02-06 08:52:00,
2013-02-06 00:56:00,29.5,27.7,29.94,ENE,58,4.0,4.0,93,0.00,,,0.00,Wunderground v.1.15,2013-02-06 08:56:00,
2013-02-06 00:57:00,29.8,28.0,29.94,ENE,58,4.0,4.0,93,0.00,,,0.00,Wunderground v.1.15,2013-02-06 08:57:00,
2013-02-06 00:59:00,30.0,28.5,29.95,ENE,58,5.0,5.0,94,0.00,,,0.00,Wunderground v.1.15,2013-02-06 08:59:00,
2013-02-06 01:00:00,30.1,28.6,29.95,ENE,58,3.0,5.0,94,0.00,,,0.00,Wunderground v.1.15,2013-02-06 09:00:00,
2013-02-06 01:05:00,31.2,29.7,29.95,ENE,58,4.0,4.0,94,0.00,,,0.00,Wunderground v.1.15,2013-02-06 09:05:00,
2013-02-06 01:06:00,31.5,30.0,29.95,ENE,58,3.0,4.0,94,0.00,,,0.00,Wunderground v.1.15,2013-02-06 09:06:00,
2013-02-06 01:07:00,31.7,30.4,29.95,ENE,58,3.0,4.0,95,0.00,,,0.00,Wunderground v.1.15,2013-02-06 09:07:00,
2013-02-06 01:12:00,32.2,30.7,29.95,ENE,58,2.0,4.0,94,0.00,,,0.00,Wunderground v.1.15,2013-02-06 09:12:00,
2013-02-06 01:13:00,32.4,30.9,29.95,ENE,58,3.0,3.0,94,0.00,,,0.00,Wunderground v.1.15,2013-02-06 09:13:00,
2013-02-06 01:18:00,32.9,31.4,29.95,ENE,58,3.0,3.0,94,0.00,,,0.00,Wunderground v.1.15,2013-02-06 09:18:00,
2013-02-06 01:20:00,33.0,31.2,29.95,ENE,58,2.0,3.0,93,0.00,,,0.00,Wunderground v.1.15,2013-02-06 09:20:00,
2013-02-06 01:22:00,33.1,31.3,29.96,ENE,58,1.0,3.0,93,0.00,,,0.00,Wunderground v.1.15,2013-02-06 09:22:00,
2013-02-06 01:26:00,33.2,31.1,29.95,ENE,58,2.0,2.0,92,0.00,,,0.00,Wunderground v.1.15,2013-02-06 09:26:00,
2013-02-06 01:27:00,33.2,31.4,29.95,ENE,58,2.0,2.0,93,0.00,,,0.00,Wunderground v.1.15,2013-02-06 09:27:00,
2013-02-06 01:28:00,33.3,31.5,29.95,ENE,58,2.0,2.0,93,0.00,,,0.00,Wunderground v.1.15,2013-02-06 09:28:00,
2013-02-06 01:30:00,33.5,31.7,29.95,ENE,58,1.0,2.0,93,0.00,,,0.00,Wunderground v.1.15,2013-02-06 09:30:00,
2013-02-06 01:32:00,33.5,31.4,29.96,ENE,58,1.0,2.0,92,0.00,,,0.00,Wunderground v.1.15,2013-02-06 09:32:00,
2013-02-06 01:33:00,33.6,31.5,29.95,ENE,58,2.0,2.0,92,0.00,,,0.00,Wunderground v.1.15,2013-02-06 09:33:00,
2013-02-06 01:35:00,33.7,31.6,29.95,ENE,58,2.0,2.0,92,0.00,,,0.00,Wunderground v.1.15,2013-02-06 09:35:00,
2013-02-06 01:39:00,33.9,31.8,29.96,ENE,58,3.0,3.0,92,0.00,,,0.00,Wunderground v.1.15,2013-02-06 09:39:00,
2013-02-06 01:44:00,34.7,32.6,29.95,ENE,58,3.0,3.0,92,0.00,,,0.00,Wunderground v.1.15,2013-02-06 09:44:00,
2013-02-06 01:45:00,34.7,32.3,29.95,ENE,58,4.0,4.0,91,0.00,,,0.00,Wunderground v.1.15,2013-02-06 09:45:00,
2013-02-06 01:46:00,34.7,32.3,29.95,ENE,58,3.0,4.0,91,0.00,,,0.00,Wunderground v.1.15,2013-02-06 09:46:00,
2013-02-06 01:49:00,34.5,31.9,29.95,ENE,58,4.0,4.0,90,0.00,,,0.00,Wunderground v.1.15,2013-02-06 09:49:00,
2013-02-06 01:50:00,34.4,31.5,29.95,ENE,58,3.0,4.0,89,0.00,,,0.00,Wunderground v.1.15,2013-02-06 09:50:00,
2013-02-06 01:51:00,34.2,31.3,29.95,ENE,58,3.0,4.0,89,0.00,,,0.00,Wunderground v.1.15,2013-02-06 09:51:00,
2013-02-06 01:54:00,34.1,31.5,29.95,ENE,58,1.0,3.0,90,0.00,,,0.00,Wunderground v.1.15,2013-02-06 09:54:00,
2013-02-06 01:59:00,34.8,32.4,29.95,ENE,58,0.0,3.0,91,0.00,,,0.00,Wunderground v.1.15,2013-02-06 09:59:00,
2013-02-06 02:04:00,35.2,32.3,29.96,ENE,58,2.0,3.0,89,0.00,,,0.00,Wunderground v.1.15,2013-02-06 10:04:00,
2013-02-06 02:09:00,34.8,31.9,29.95,ENE,58,0.0,3.0,89,0.00,,,0.00,Wunderground v.1.15,2013-02-06 10:09:00,
2013-02-06 02:14:00,35.4,32.8,29.95,ENE,58,0.0,1.0,90,0.00,,,0.00,Wunderground v.1.15,2013-02-06 10:14:00,
2013-02-06 02:19:00,35.6,32.4,29.96,ENE,58,2.0,3.0,88,0.00,,,0.00,Wunderground v.1.15,2013-02-06 10:19:00,
2013-02-06 02:24:00,35.4,32.2,29.95,ENE,58,0.0,1.0,88,0.00,,,0.00,Wunderground v.1.15,2013-02-06 10:24:00,
2013-02-06 02:29:00,35.8,32.9,29.96,ENE,58,2.0,2.0,89,0.00,,,0.00,Wunderground v.1.15,2013-02-06 10:29:00,
2013-02-06 02:34:00,35.5,32.0,29.96,ENE,58,2.0,3.0,87,0.00,,,0.00,Wunderground v.1.15,2013-02-06 10:34:00,
2013-02-06 02:39:00,36.1,33.2,29.96,ENE,58,3.0,7.0,89,0.00,,,0.00,Wunderground v.1.15,2013-02-06 10:39:00,
2013-02-06 02:44:00,36.4,32.6,29.97,ENE,58,4.0,4.0,86,0.00,,,0.00,Wunderground v.1.15,2013-02-06 10:44:00,
2013-02-06 02:49:00,35.9,32.1,29.96,ENE,58,3.0,4.0,86,0.00,,,0.00,Wunderground v.1.15,2013-02-06 10:49:00,
2013-02-06 02:54:00,36.2,32.7,29.96,ENE,58,0.0,1.0,87,0.00,,,0.00,Wunderground v.1.15,2013-02-06 10:54:00,
2013-02-06 02:59:00,36.5,32.7,29.96,ENE,58,0.0,1.0,86,0.00,,,0.00,Wunderground v.1.15,2013-02-06 10:59:00,
2013-02-06 03:04:00,36.8,33.0,29.96,ENE,58,1.0,1.0,86,0.00,,,0.00,Wunderground v.1.15,2013-02-06 11:04:00,
2013-02-06 03:09:00,36.8,33.0,29.96,ENE,58,1.0,2.0,86,0.00,,,0.00,Wunderground v.1.15,2013-02-06 11:09:00,
2013-02-06 03:14:00,36.5,32.4,29.96,ENE,58,0.0,2.0,85,0.00,,,0.00,Wunderground v.1.15,2013-02-06 11:14:00,
2013-02-06 03:19:00,36.1,32.0,29.96,ENE,58,1.0,3.0,85,0.00,,,0.00,Wunderground v.1.15,2013-02-06 11:19:00,
2013-02-06 03:24:00,35.9,32.1,29.97,ENE,58,0.0,1.0,86,0.00,,,0.00,Wunderground v.1.15,2013-02-06 11:24:00,
2013-02-06 03:29:00,35.7,31.9,29.97,ENE,58,2.0,2.0,86,0.00,,,0.00,Wunderground v.1.15,2013-02-06 11:29:00,
2013-02-06 03:34:00,35.7,31.9,29.97,ENE,58,1.0,2.0,86,0.00,,,0.00,Wunderground v.1.15,2013-02-06 11:34:00,
2013-02-06 03:39:00,35.1,31.3,29.97,ENE,58,2.0,3.0,86,0.00,,,0.00,Wunderground v.1.15,2013-02-06 11:39:00,
2013-02-06 03:44:00,35.4,31.9,29.97,ENE,58,3.0,3.0,87,0.00,,,0.00,Wunderground v.1.15,2013-02-06 11:44:00,
2013-02-06 03:49:00,35.7,32.2,29.97,ENE,58,4.0,4.0,87,0.00,,,0.00,Wunderground v.1.15,2013-02-06 11:49:00,
2013-02-06 03:54:00,36.1,32.6,29.97,ENE,58,5.0,6.0,87,0.00,,,0.00,Wunderground v.1.15,2013-02-06 11:54:00,
2013-02-06 03:59:00,35.9,32.1,29.97,ENE,58,5.0,7.0,86,0.00,,,0.00,Wunderground v.1.15,2013-02-06 11:59:00,
2013-02-06 04:04:00,35.7,31.9,29.97,ENE,58,3.0,5.0,86,0.00,,,0.00,Wunderground v.1.15,2013-02-06 12:04:00,
2013-02-06 04:09:00,35.2,31.4,29.97,ENE,58,1.0,5.0,86,0.00,,,0.00,Wunderground v.1.15,2013-02-06 12:09:00,
2013-02-06 04:14:00,33.9,30.2,29.98,ENE,58,5.0,5.0,86,0.00,,,0.00,Wunderground v.1.15,2013-02-06 12:14:00,
2013-02-06 04:19:00,33.9,31.0,29.98,ENE,58,6.0,6.0,89,0.00,,,0.00,Wunderground v.1.15,2013-02-06 12:19:00,
2013-02-06 04:24:00,34.1,31.2,29.98,ENE,58,4.0,6.0,89,0.00,,,0.00,Wunderground v.1.15,2013-02-06 12:24:00,
2013-02-06 04:29:00,34.9,32.0,29.98,ENE,58,3.0,6.0,89,0.00,,,0.00,Wunderground v.1.15,2013-02-06 12:29:00,
2013-02-06 04:34:00,35.4,32.2,29.98,ENE,58,1.0,4.0,88,0.00,,,0.00,Wunderground v.1.15,2013-02-06 12:34:00,
2013-02-06 04:39:00,35.1,31.3,29.99,ENE,58,4.0,4.0,86,0.00,,,0.00,Wunderground v.1.15,2013-02-06 12:39:00,
2013-02-06 04:44:00,34.1,30.4,29.99,ENE,58,4.0,5.0,86,0.00,,,0.00,Wunderground v.1.15,2013-02-06 12:44:00,
2013-02-06 04:49:00,33.5,30.3,29.99,ENE,58,3.0,5.0,88,0.00,,,0.00,Wunderground v.1.15,2013-02-06 12:49:00,
2013-02-06 04:54:00,33.6,30.4,29.99,ENE,58,3.0,4.0,88,0.00,,,0.00,Wunderground v.1.15,2013-02-06 12:54:00,
2013-02-06 04:59:00,33.6,30.4,29.99,ENE,58,6.0,6.0,88,0.00,,,0.00,Wunderground v.1.15,2013-02-06 12:59:00,
2013-02-06 05:04:00,34.3,31.4,29.99,ENE,58,4.0,6.0,89,0.00,,,0.00,Wunderground v.1.15,2013-02-06 13:04:00,
2013-02-06 05:09:00,35.0,31.8,29.99,ENE,58,5.0,6.0,88,0.00,,,0.00,Wunderground v.1.15,2013-02-06 13:09:00,
2013-02-06 05:14:00,34.3,30.5,29.99,ENE,58,5.0,5.0,86,0.00,,,0.00,Wunderground v.1.15,2013-02-06 13:14:00,
2013-02-06 05:19:00,33.8,30.3,30.00,ENE,58,2.0,6.0,87,0.00,,,0.00,Wunderground v.1.15,2013-02-06 13:19:00,
2013-02-06 05:24:00,33.6,30.4,30.00,ENE,58,3.0,4.0,88,0.00,,,0.00,Wunderground v.1.15,2013-02-06 13:24:00,
2013-02-06 05:29:00,33.4,30.2,30.00,ENE,58,5.0,6.0,88,0.00,,,0.00,Wunderground v.1.15,2013-02-06 13:29:00,
2013-02-06 05:34:00,33.0,30.1,30.00,ENE,58,6.0,6.0,89,0.00,,,0.00,Wunderground v.1.15,2013-02-06 13:34:00,
2013-02-06 05:39:00,33.4,30.5,29.99,ENE,58,6.0,6.0,89,0.00,,,0.00,Wunderground v.1.15,2013-02-06 13:39:00,
2013-02-06 05:44:00,33.3,30.4,30.00,ENE,58,4.0,6.0,89,0.00,,,0.00,Wunderground v.1.15,2013-02-06 13:44:00,
2013-02-06 05:49:00,33.2,30.3,29.99,ENE,58,4.0,6.0,89,0.00,,,0.00,Wunderground v.1.15,2013-02-06 13:49:00,
2013-02-06 05:55:00,32.9,29.7,29.99,ENE,58,4.0,5.0,88,0.00,,,0.00,Wunderground v.1.15,2013-02-06 13:55:00,
2013-02-06 06:00:00,32.3,28.9,29.99,ENE,58,3.0,5.0,87,0.00,,,0.00,Wunderground v.1.15,2013-02-06 14:00:00,
2013-02-06 06:05:00,31.4,28.3,30.00,ENE,58,1.0,2.0,88,0.00,,,0.00,Wunderground v.1.15,2013-02-06 14:05:00,
2013-02-06 06:10:00,31.0,28.1,30.00,ENE,58,3.0,4.0,89,0.00,,,0.00,Wunderground v.1.15,2013-02-06 14:10:00,
2013-02-06 06:15:00,31.6,29.3,30.00,ENE,58,5.0,5.0,91,0.00,,,0.00,Wunderground v.1.15,2013-02-06 14:15:00,
2013-02-06 06:20:00,32.4,30.1,30.00,ENE,58,6.0,6.0,91,0.00,,,0.00,Wunderground v.1.15,2013-02-06 14:20:00,
2013-02-06 06:25:00,32.3,29.7,30.00,NE,56,6.0,7.0,90,0.00,,,0.00,Wunderground v.1.15,2013-02-06 14:25:00,
2013-02-06 06:30:00,32.4,29.8,30.01,NE,53,5.0,7.0,90,0.00,,,0.00,Wunderground v.1.15,2013-02-06 14:30:00,
2013-02-06 06:35:00,32.6,30.3,30.01,NE,53,4.0,6.0,91,0.00,,,0.00,Wunderground v.1.15,2013-02-06 14:35:00,
2013-02-06 06:40:00,32.9,30.6,30.01,NE,53,5.0,7.0,91,0.00,,,0.00,Wunderground v.1.15,2013-02-06 14:40:00,
2013-02-06 06:45:00,33.0,30.4,30.01,NE,53,5.0,5.0,90,0.00,,,0.00,Wunderground v.1.15,2013-02-06 14:45:00,
2013-02-06 06:50:00,33.3,30.7,30.01,NE,54,4.0,6.0,90,0.00,,,0.00,Wunderground v.1.15,2013-02-06 14:50:00,
2013-02-06 06:55:00,33.5,30.9,30.01,NE,54,2.0,4.0,90,0.00,,,0.00,Wunderground v.1.15,2013-02-06 14:55:00,
2013-02-06 07:00:00,33.6,30.7,30.01,NE,54,0.0,4.0,89,0.00,,,0.00,Wunderground v.1.15,2013-02-06 15:00:00,
2013-02-06 07:05:00,32.9,29.7,30.01,NE,54,4.0,6.0,88,0.00,,,0.00,Wunderground v.1.15,2013-02-06 15:05:00,
2013-02-06 07:10:00,32.5,29.6,30.01,NE,54,4.0,6.0,89,0.00,,,0.00,Wunderground v.1.15,2013-02-06 15:10:00,
2013-02-06 07:15:00,33.0,30.4,30.01,NE,54,4.0,4.0,90,0.00,,,0.00,Wunderground v.1.15,2013-02-06 15:15:00,
2013-02-06 07:20:00,33.5,30.9,30.01,NE,54,2.0,4.0,90,0.00,,,0.00,Wunderground v.1.15,2013-02-06 15:20:00,
2013-02-06 07:25:00,33.8,30.9,30.02,NE,54,2.0,4.0,89,0.00,,,0.00,Wunderground v.1.15,2013-02-06 15:25:00,
2013-02-06 07:30:00,33.3,30.1,30.02,NE,54,6.0,6.0,88,0.00,,,0.00,Wunderground v.1.15,2013-02-06 15:30:00,
2013-02-06 07:35:00,33.3,30.7,30.02,NE,54,6.0,7.0,90,0.00,,,0.00,Wunderground v.1.15,2013-02-06 15:35:00,
2013-02-06 07:40:00,34.2,31.3,30.02,NE,54,4.0,7.0,89,0.00,,,0.00,Wunderground v.1.15,2013-02-06 15:40:00,
2013-02-06 07:45:00,34.5,31.6,30.02,ENE,57,3.0,7.0,89,0.00,,,0.00,Wunderground v.1.15,2013-02-06 15:45:00,
2013-02-06 07:50:00,34.2,31.0,30.02,ENE,57,4.0,7.0,88,0.00,,,0.00,Wunderground v.1.15,2013-02-06 15:50:00,
2013-02-06 07:55:00,34.4,31.2,30.02,ENE,57,4.0,5.0,88,0.00,,,0.00,Wunderground v.1.15,2013-02-06 15:55:00,
2013-02-06 08:00:00,35.0,32.1,30.02,ENE,57,5.0,5.0,89,0.00,,,0.00,Wunderground v.1.15,2013-02-06 16:00:00,
2013-02-06 08:05:00,34.9,31.4,30.03,ENE,57,4.0,4.0,87,0.00,,,0.00,Wunderground v.1.15,2013-02-06 16:05:00,
2013-02-06 08:10:00,35.0,31.8,30.03,ENE,57,3.0,4.0,88,0.00,,,0.00,Wunderground v.1.15,2013-02-06 16:10:00,
2013-02-06 08:15:00,35.2,32.3,30.03,ENE,57,2.0,4.0,89,0.00,,,0.00,Wunderground v.1.15,2013-02-06 16:15:00,
2013-02-06 08:20:00,36.0,32.8,30.03,ENE,57,1.0,4.0,88,0.00,,,0.00,Wunderground v.1.15,2013-02-06 16:20:00,
2013-02-06 08:25:00,35.6,31.8,30.04,ENE,57,4.0,4.0,86,0.00,,,0.00,Wunderground v.1.15,2013-02-06 16:25:00,
2013-02-06 08:30:00,34.8,31.0,30.04,ENE,57,4.0,5.0,86,0.00,,,0.00,Wunderground v.1.15,2013-02-06 16:30:00,
2013-02-06 08:35:00,34.6,31.4,30.04,ENE,57,2.0,4.0,88,0.00,,,0.00,Wunderground v.1.15,2013-02-06 16:35:00,
2013-02-06 08:40:00,34.7,31.8,30.04,ENE,57,4.0,7.0,89,0.00,,,0.00,Wunderground v.1.15,2013-02-06 16:40:00,
2013-02-06 08:45:00,34.9,32.0,30.04,ENE,57,4.0,5.0,89,0.00,,,0.00,Wunderground v.1.15,2013-02-06 16:45:00,
2013-02-06 08:50:00,34.9,32.0,30.04,ENE,57,3.0,5.0,89,0.00,,,0.00,Wunderground v.1.15,2013-02-06 16:50:00,
2013-02-06 08:55:00,35.3,32.7,30.04,ENE,57,2.0,4.0,90,0.00,,,0.00,Wunderground v.1.15,2013-02-06 16:55:00,
2013-02-06 09:00:00,35.6,33.0,30.04,ENE,57,2.0,4.0,90,0.00,,,0.00,Wunderground v.1.15,2013-02-06 17:00:00,
2013-02-06 09:05:00,36.0,33.4,30.04,ENE,57,3.0,5.0,90,0.00,,,0.00,Wunderground v.1.15,2013-02-06 17:05:00,
2013-02-06 09:10:00,36.1,33.2,30.05,ENE,57,3.0,5.0,89,0.00,,,0.00,Wunderground v.1.15,2013-02-06 17:10:00,
2013-02-06 09:15:00,36.4,33.5,30.05,ENE,57,4.0,5.0,89,0.00,,,0.00,Wunderground v.1.15,2013-02-06 17:15:00,
2013-02-06 09:20:00,36.8,33.9,30.05,ENE,57,3.0,5.0,89,0.00,,,0.00,Wunderground v.1.15,2013-02-06 17:20:00,
2013-02-06 09:25:00,37.3,34.4,30.05,ENE,57,2.0,4.0,89,0.00,,,0.00,Wunderground v.1.15,2013-02-06 17:25:00,
2013-02-06 09:30:00,37.8,34.8,30.05,ENE,57,3.0,4.0,89,0.00,,,0.00,Wunderground v.1.15,2013-02-06 17:30:00,
2013-02-06 09:35:00,38.0,34.8,30.05,ENE,57,3.0,4.0,88,0.00,,,0.00,Wunderground v.1.15,2013-02-06 17:35:00,
2013-02-06 09:40:00,38.1,34.9,30.05,ENE,57,4.0,6.0,88,0.00,,,0.00,Wunderground v.1.15,2013-02-06 17:40:00,
2013-02-06 09:45:00,38.4,35.2,30.05,ENE,57,4.0,6.0,88,0.00,,,0.00,Wunderground v.1.15,2013-02-06 17:45:00,
2013-02-06 09:50:00,38.6,35.1,30.06,ENE,57,5.0,6.0,87,0.00,,,0.00,Wunderground v.1.15,2013-02-06 17:50:00,
2013-02-06 09:55:00,39.0,35.2,30.06,ENE,57,4.0,6.0,86,0.00,,,0.00,Wunderground v.1.15,2013-02-06 17:55:00,
2013-02-06 10:00:00,39.5,35.4,30.06,ENE,57,4.0,6.0,85,0.00,,,0.00,Wunderground v.1.15,2013-02-06 18:00:00,
2013-02-06 10:05:00,39.9,35.5,30.06,ENE,57,1.0,5.0,84,0.00,,,0.00,Wunderground v.1.15,2013-02-06 18:05:00,
2013-02-06 10:10:00,40.4,35.6,30.06,ENE,57,0.0,5.0,83,0.00,,,0.00,Wunderground v.1.15,2013-02-06 18:10:00,
2013-02-06 10:15:00,41.1,36.3,30.06,ENE,57,0.0,2.0,83,0.00,,,0.00,Wunderground v.1.15,2013-02-06 18:15:00,
2013-02-06 10:20:00,41.6,35.9,30.06,ENE,57,4.0,6.0,80,0.00,,,0.00,Wunderground v.1.15,2013-02-06 18:20:00,
2013-02-06 10:25:00,41.6,35.9,30.06,ENE,57,0.0,4.0,80,0.00,,,0.00,Wunderground v.1.15,2013-02-06 18:25:00,
2013-02-06 10:30:00,41.8,35.8,30.06,ENE,57,3.0,5.0,79,0.00,,,0.00,Wunderground v.1.15,2013-02-06 18:30:00,
2013-02-06 10:35:00,42.1,36.4,30.06,ENE,57,2.0,3.0,80,0.00,,,0.00,Wunderground v.1.15,2013-02-06 18:35:00,
2013-02-06 10:40:00,42.7,36.6,30.06,ENE,57,3.0,3.0,79,0.00,,,0.00,Wunderground v.1.15,2013-02-06 18:40:00,
2013-02-06 10:45:00,43.1,36.4,30.06,ENE,57,4.0,4.0,77,0.00,,,0.00,Wunderground v.1.15,2013-02-06 18:45:00,
2013-02-06 10:50:00,43.3,36.6,30.06,ENE,57,2.0,5.0,77,0.00,,,0.00,Wunderground v.1.15,2013-02-06 18:50:00,
2013-02-06 10:55:00,43.6,36.5,30.06,North,11,5.0,7.0,76,0.00,,,0.00,Wunderground v.1.15,2013-02-06 18:55:00,
2013-02-06 11:00:00,43.8,36.4,30.06,NNW,342,0.0,8.0,75,0.00,,,0.00,Wunderground v.1.15,2013-02-06 19:00:00,
2013-02-06 11:05:00,44.1,36.7,30.06,NNW,342,3.0,5.0,75,0.00,,,0.00,Wunderground v.1.15,2013-02-06 19:05:00,
2013-02-06 11:10:00,44.3,36.5,30.06,NNW,342,2.0,5.0,74,0.00,,,0.00,Wunderground v.1.15,2013-02-06 19:10:00,
2013-02-06 11:15:00,44.7,37.3,30.06,NNW,332,6.0,6.0,75,0.00,,,0.00,Wunderground v.1.15,2013-02-06 19:15:00,
2013-02-06 11:20:00,44.7,36.6,30.06,NNW,329,1.0,7.0,73,0.00,,,0.00,Wunderground v.1.15,2013-02-06 19:20:00,
2013-02-06 11:25:00,45.0,37.2,30.06,NNW,329,2.0,5.0,74,0.00,,,0.00,Wunderground v.1.15,2013-02-06 19:25:00,
2013-02-06 11:30:00,45.4,37.6,30.05,WSW,238,9.0,12.0,74,0.00,,,0.00,Wunderground v.1.15,2013-02-06 19:30:00,
2013-02-06 11:35:00,45.5,37.3,30.05,SW,214,8.0,12.0,73,0.00,,,0.00,Wunderground v.1.15,2013-02-06 19:35:00,
2013-02-06 11:40:00,45.6,37.4,30.05,SSW,213,3.0,12.0,73,0.00,,,0.00,Wunderground v.1.15,2013-02-06 19:40:00,
2013-02-06 11:45:00,45.4,37.2,30.05,WSW,237,7.0,11.0,73,0.00,,,0.00,Wunderground v.1.15,2013-02-06 19:45:00,
2013-02-06 11:50:00,45.2,36.7,30.05,WSW,244,12.0,15.0,72,0.00,,,0.00,Wunderground v.1.15,2013-02-06 19:50:00,
2013-02-06 11:55:00,45.4,36.9,30.05,SW,225,7.0,11.0,72,0.00,,,0.00,Wunderground v.1.15,2013-02-06 19:55:00,
2013-02-06 12:00:00,45.5,36.3,30.05,SW,236,10.0,13.0,70,0.00,,,0.00,Wunderground v.1.15,2013-02-06 20:00:00,
2013-02-06 12:05:00,45.7,36.8,30.05,SW,225,9.0,12.0,71,0.00,,,0.00,Wunderground v.1.15,2013-02-06 20:05:00,
2013-02-06 12:10:00,45.7,36.5,30.05,SW,229,7.0,13.0,70,0.00,,,0.00,Wunderground v.1.15,2013-02-06 20:10:00,
2013-02-06 12:15:00,45.5,36.6,30.05,SW,225,6.0,9.0,71,0.00,,,0.00,Wunderground v.1.15,2013-02-06 20:15:00,
2013-02-06 12:20:00,45.6,36.7,30.05,WSW,242,7.0,10.0,71,0.00,,,0.00,Wunderground v.1.15,2013-02-06 20:20:00,
2013-02-06 12:25:00,45.3,36.4,30.05,WSW,246,8.0,11.0,71,0.00,,,0.00,Wunderground v.1.15,2013-02-06 20:25:00,
2013-02-06 12:30:00,44.9,35.7,30.05,WSW,238,9.0,12.0,70,0.00,,,0.00,Wunderground v.1.15,2013-02-06 20:30:00,
2013-02-06 12:35:00,44.9,36.1,30.05,WSW,243,9.0,13.0,71,0.00,,,0.00,Wunderground v.1.15,2013-02-06 20:35:00,
2013-02-06 12:40:00,45.0,36.2,30.05,WSW,241,6.0,13.0,71,0.00,,,0.00,Wunderground v.1.15,2013-02-06 20:40:00,
2013-02-06 12:45:00,45.0,35.1,30.04,WSW,248,11.0,15.0,68,0.00,,,0.00,Wunderground v.1.15,2013-02-06 20:45:00,
2013-02-06 12:50:00,44.9,35.0,30.04,WSW,248,11.0,15.0,68,0.00,,,0.00,Wunderground v.1.15,2013-02-06 20:50:00,
2013-02-06 12:55:00,44.8,35.2,30.04,West,259,10.0,12.0,69,0.00,,,0.00,Wunderground v.1.15,2013-02-06 20:55:00,
2013-02-06 13:00:00,44.9,35.7,30.04,West,262,6.0,12.0,70,0.00,,,0.00,Wunderground v.1.15,2013-02-06 21:00:00,
2013-02-06 13:05:00,44.9,35.7,30.04,WSW,248,9.0,11.0,70,0.00,,,0.00,Wunderground v.1.15,2013-02-06 21:05:00,
2013-02-06 13:10:00,44.8,35.6,30.04,WSW,249,7.0,11.0,70,0.00,,,0.00,Wunderground v.1.15,2013-02-06 21:10:00,
2013-02-06 13:15:00,44.9,35.7,30.03,WSW,255,7.0,9.0,70,0.00,,,0.00,Wunderground v.1.15,2013-02-06 21:15:00,
2013-02-06 13:20:00,45.0,36.2,30.03,WSW,254,5.0,9.0,71,0.00,,,0.00,Wunderground v.1.15,2013-02-06 21:20:00,
2013-02-06 13:26:00,45.1,35.9,30.03,WSW,250,7.0,11.0,70,0.00,,,0.00,Wunderground v.1.15,2013-02-06 21:26:00,
2013-02-06 13:30:00,45.2,36.0,30.03,WSW,251,5.0,11.0,70,0.00,,,0.00,Wunderground v.1.15,2013-02-06 21:30:00,
2013-02-06 13:35:00,45.3,35.7,30.03,WSW,254,4.0,8.0,69,0.00,,,0.00,Wunderground v.1.15,2013-02-06 21:35:00,
2013-02-06 13:41:00,45.4,35.8,30.03,West,268,6.0,9.0,69,0.00,,,0.00,Wunderground v.1.15,2013-02-06 21:41:00,
2013-02-06 13:46:00,45.5,35.9,30.03,West,267,6.0,6.0,69,0.00,,,0.00,Wunderground v.1.15,2013-02-06 21:46:00,
2013-02-06 13:51:00,45.5,35.9,30.03,West,276,3.0,9.0,69,0.00,,,0.00,Wunderground v.1.15,2013-02-06 21:51:00,
2013-02-06 13:56:00,45.6,36.4,30.03,West,273,5.0,8.0,70,0.00,,,0.00,Wunderground v.1.15,2013-02-06 21:56:00,
2013-02-06 14:01:00,45.6,36.4,30.03,WSW,248,5.0,9.0,70,0.00,,,0.00,Wunderground v.1.15,2013-02-06 22:01:00,
2013-02-06 14:06:00,45.8,37.3,30.03,WSW,248,6.0,7.0,72,0.00,,,0.00,Wunderground v.1.15,2013-02-06 22:06:00,
2013-02-06 14:11:00,46.0,36.8,30.02,WSW,244,8.0,9.0,70,0.00,,,0.00,Wunderground v.1.15,2013-02-06 22:11:00,
2013-02-06 14:16:00,46.1,36.9,30.02,SW,234,10.0,10.0,70,0.00,,,0.00,Wunderground v.1.15,2013-02-06 22:16:00,
2013-02-06 14:21:00,46.2,36.6,30.02,SW,232,6.0,11.0,69,0.00,,,0.00,Wunderground v.1.15,2013-02-06 22:21:00,
2013-02-06 14:26:00,46.4,36.4,30.02,SW,221,4.0,10.0,68,0.00,,,0.00,Wunderground v.1.15,2013-02-06 22:26:00,
2013-02-06 14:31:00,46.6,36.2,30.02,SW,214,6.0,11.0,67,0.00,,,0.00,Wunderground v.1.15,2013-02-06 22:31:00,
2013-02-06 14:36:00,46.5,36.1,30.02,SW,215,4.0,13.0,67,0.00,,,0.00,Wunderground v.1.15,2013-02-06 22:36:00,
2013-02-06 14:41:00,46.3,35.9,30.02,SW,221,9.0,13.0,67,0.00,,,0.00,Wunderground v.1.15,2013-02-06 22:41:00,
2013-02-06 14:46:00,46.2,36.2,30.02,SW,221,7.0,10.0,68,0.00,,,0.00,Wunderground v.1.15,2013-02-06 22:46:00,
2013-02-06 14:51:00,46.1,36.1,30.02,SW,219,8.0,10.0,68,0.00,,,0.00,Wunderground v.1.15,2013-02-06 22:51:00,
2013-02-06 14:56:00,45.9,35.9,30.02,SSW,211,8.0,9.0,68,0.00,,,0.00,Wunderground v.1.15,2013-02-06 22:56:00,
2013-02-06 15:01:00,45.7,36.1,30.02,SSW,206,7.0,11.0,69,0.00,,,0.00,Wunderground v.1.15,2013-02-06 23:01:00,
2013-02-06 15:06:00,45.6,36.0,30.02,SSW,206,4.0,7.0,69,0.00,,,0.00,Wunderground v.1.15,2013-02-06 23:06:00,
2013-02-06 15:11:00,45.4,36.5,30.02,SSW,206,5.0,7.0,71,0.00,,,0.00,Wunderground v.1.15,2013-02-06 23:11:00,
2013-02-06 15:15:00,45.2,36.4,30.02,SSW,205,4.0,8.0,71,0.00,,,0.00,Wunderground v.1.15,2013-02-06 23:15:00,
2013-02-06 15:21:00,44.9,36.4,30.02,SSW,205,3.0,8.0,72,0.00,,,0.00,Wunderground v.1.15,2013-02-06 23:21:00,
2013-02-06 15:25:00,44.6,36.1,30.02,SSW,203,4.0,7.0,72,0.00,,,0.00,Wunderground v.1.15,2013-02-06 23:25:00,
2013-02-06 15:30:00,44.5,36.0,30.02,SSW,198,6.0,8.0,72,0.00,,,0.00,Wunderground v.1.15,2013-02-06 23:30:00,
2013-02-06 15:36:00,44.4,35.9,30.02,SSW,198,6.0,8.0,72,0.00,,,0.00,Wunderground v.1.15,2013-02-06 23:36:00,
2013-02-06 15:41:00,44.2,35.7,30.02,SSW,198,4.0,8.0,72,0.00,,,0.00,Wunderground v.1.15,2013-02-06 23:41:00,
2013-02-06 15:46:00,44.0,35.6,30.01,SSW,196,4.0,6.0,72,0.00,,,0.00,Wunderground v.1.15,2013-02-06 23:46:00,
2013-02-06 15:51:00,44.0,35.9,30.01,SSW,195,4.0,6.0,73,0.00,,,0.00,Wunderground v.1.15,2013-02-06 23:51:00,
2013-02-06 15:56:00,44.0,35.9,30.01,SSW,194,3.0,5.0,73,0.00,,,0.00,Wunderground v.1.15,2013-02-06 23:56:00,
2013-02-06 16:01:00,44.0,35.9,30.01,SSW,194,4.0,5.0,73,0.00,,,0.00,Wunderground v.1.15,2013-02-07 00:01:00,
2013-02-06 16:06:00,44.0,35.6,30.01,SSW,193,4.0,5.0,72,0.00,,,0.00,Wunderground v.1.15,2013-02-07 00:06:00,
2013-02-06 16:11:00,44.1,35.6,30.01,SSW,193,3.0,5.0,72,0.00,,,0.00,Wunderground v.1.15,2013-02-07 00:11:00,
2013-02-06 16:16:00,44.1,35.6,30.01,SSW,193,0.0,4.0,72,0.00,,,0.00,Wunderground v.1.15,2013-02-07 00:16:00,
2013-02-06 16:21:00,44.0,35.6,30.01,SSW,193,2.0,4.0,72,0.00,,,0.00,Wunderground v.1.15,2013-02-07 00:21:00,
2013-02-06 16:26:00,43.5,35.4,30.01,SSW,193,2.0,2.0,73,0.00,,,0.00,Wunderground v.1.15,2013-02-07 00:26:00,
2013-02-06 16:31:00,43.2,35.1,30.01,SSW,193,2.0,3.0,73,0.00,,,0.00,Wunderground v.1.15,2013-02-07 00:31:00,
2013-02-06 16:36:00,42.9,35.2,30.01,SSW,193,2.0,3.0,74,0.00,,,0.00,Wunderground v.1.15,2013-02-07 00:36:00,
2013-02-06 16:41:00,42.8,35.1,30.01,SSW,193,2.0,3.0,74,0.00,,,0.00,Wunderground v.1.15,2013-02-07 00:41:00,
2013-02-06 16:46:00,43.0,34.9,30.00,South,190,4.0,5.0,73,0.00,,,0.00,Wunderground v.1.15,2013-02-07 00:46:00,
2013-02-06 16:51:00,43.4,34.6,30.01,South,189,2.0,5.0,71,0.00,,,0.00,Wunderground v.1.15,2013-02-07 00:51:00,
2013-02-06 16:56:00,43.5,34.7,30.00,South,189,3.0,3.0,71,0.00,,,0.00,Wunderground v.1.15,2013-02-07 00:56:00,
2013-02-06 17:01:00,43.5,34.7,30.01,South,189,0.0,3.0,71,0.00,,,0.00,Wunderground v.1.15,2013-02-07 01:01:00,
2013-02-06 17:06:00,43.5,34.7,30.00,South,189,2.0,3.0,71,0.00,,,0.00,Wunderground v.1.15,2013-02-07 01:06:00,
2013-02-06 17:11:00,43.3,34.2,30.00,South,189,4.0,4.0,70,0.00,,,0.00,Wunderground v.1.15,2013-02-07 01:11:00,
2013-02-06 17:16:00,43.1,34.3,30.00,South,188,3.0,4.0,71,0.00,,,0.00,Wunderground v.1.15,2013-02-07 01:16:00,
2013-02-06 17:21:00,42.5,34.1,30.00,South,188,4.0,4.0,72,0.00,,,0.00,Wunderground v.1.15,2013-02-07 01:21:00,
2013-02-06 17:26:00,41.8,33.8,30.00,South,188,4.0,4.0,73,0.00,,,0.00,Wunderground v.1.15,2013-02-07 01:26:00,
2013-02-06 17:31:00,41.4,33.7,30.00,South,188,4.0,4.0,74,0.00,,,0.00,Wunderground v.1.15,2013-02-07 01:31:00,
2013-02-06 17:36:00,41.4,33.7,30.00,South,185,4.0,4.0,74,0.00,,,0.00,Wunderground v.1.15,2013-02-07 01:36:00,
2013-02-06 17:41:00,41.6,33.9,30.00,South,184,3.0,4.0,74,0.00,,,0.00,Wunderground v.1.15,2013-02-07 01:41:00,
2013-02-06 17:46:00,41.6,33.6,30.00,South,184,3.0,4.0,73,0.00,,,0.00,Wunderground v.1.15,2013-02-07 01:46:00,
2013-02-06 17:51:00,41.5,33.8,30.00,South,183,4.0,4.0,74,0.00,,,0.00,Wunderground v.1.15,2013-02-07 01:51:00,
2013-02-06 17:56:00,41.5,33.5,29.99,South,182,4.0,4.0,73,0.00,,,0.00,Wunderground v.1.15,2013-02-07 01:56:00,
2013-02-06 18:01:00,41.6,33.6,29.99,South,180,4.0,4.0,73,0.00,,,0.00,Wunderground v.1.15,2013-02-07 02:01:00,
2013-02-06 18:06:00,41.6,33.6,29.99,South,175,5.0,6.0,73,0.00,,,0.00,Wunderground v.1.15,2013-02-07 02:06:00,
2013-02-06 18:11:00,41.8,33.8,29.99,South,173,5.0,6.0,73,0.00,,,0.00,Wunderground v.1.15,2013-02-07 02:11:00,
2013-02-06 18:16:00,41.7,33.7,29.99,South,173,5.0,6.0,73,0.00,,,0.00,Wunderground v.1.15,2013-02-07 02:16:00,
2013-02-06 18:21:00,41.8,33.4,29.99,South,173,5.0,6.0,72,0.00,,,0.00,Wunderground v.1.15,2013-02-07 02:21:00,
2013-02-06 18:26:00,41.6,33.2,29.99,South,173,5.0,6.0,72,0.00,,,0.00,Wunderground v.1.15,2013-02-07 02:26:00,
2013-02-06 18:31:00,41.6,33.6,29.99,South,173,4.0,6.0,73,0.00,,,0.00,Wunderground v.1.15,2013-02-07 02:31:00,
2013-02-06 18:36:00,41.7,33.7,29.99,South,173,5.0,5.0,73,0.00,,,0.00,Wunderground v.1.15,2013-02-07 02:36:00,
2013-02-06 18:41:00,41.8,33.4,29.99,South,173,6.0,6.0,72,0.00,,,0.00,Wunderground v.1.15,2013-02-07 02:41:00,
2013-02-06 18:46:00,41.6,33.6,29.99,ESE,115,5.0,9.0,73,0.00,,,0.00,Wunderground v.1.15,2013-02-07 02:46:00,
2013-02-06 18:51:00,41.1,33.4,29.99,ESE,115,6.0,9.0,74,0.00,,,0.00,Wunderground v.1.15,2013-02-07 02:51:00,
2013-02-06 18:56:00,41.6,33.6,29.98,ESE,111,7.0,9.0,73,0.00,,,0.00,Wunderground v.1.15,2013-02-07 02:56:00,
2013-02-06 19:01:00,41.9,34.9,29.99,ESE,111,6.0,9.0,76,0.00,,,0.00,Wunderground v.1.15,2013-02-07 03:01:00,
2013-02-06 19:06:00,42.1,33.7,29.99,ESE,111,4.0,7.0,72,0.00,,,0.00,Wunderground v.1.15,2013-02-07 03:06:00,
2013-02-06 19:11:00,42.0,33.6,29.99,ESE,111,2.0,7.0,72,0.00,,,0.00,Wunderground v.1.15,2013-02-07 03:11:00,
2013-02-06 19:16:00,41.8,33.8,29.99,ESE,111,4.0,4.0,73,0.00,,,0.00,Wunderground v.1.15,2013-02-07 03:16:00,
2013-02-06 19:21:00,41.8,33.8,29.99,ESE,111,0.0,5.0,73,0.00,,,0.00,Wunderground v.1.15,2013-02-07 03:21:00,
2013-02-06 19:26:00,41.7,34.0,29.99,ESE,111,0.0,4.0,74,0.00,,,0.00,Wunderground v.1.15,2013-02-07 03:26:00,
2013-02-06 19:31:00,41.6,33.9,29.99,ESE,111,0.0,4.0,74,0.00,,,0.00,Wunderground v.1.15,2013-02-07 03:31:00,
2013-02-06 19:36:00,41.6,34.3,29.99,ESE,111,0.0,5.0,75,0.00,,,0.00,Wunderground v.1.15,2013-02-07 03:36:00,
2013-02-06 19:41:00,41.4,34.4,29.98,ESE,111,2.0,5.0,76,0.00,,,0.00,Wunderground v.1.15,2013-02-07 03:41:00,
2013-02-06 19:46:00,41.1,34.1,29.98,ESE,111,1.0,2.0,76,0.00,,,0.00,Wunderground v.1.15,2013-02-07 03:46:00,
2013-02-06 19:51:00,40.9,34.2,29.98,ESE,111,6.0,6.0,77,0.00,,,0.00,Wunderground v.1.15,2013-02-07 03:51:00,
2013-02-06 19:56:00,41.1,34.4,29.97,ESE,111,8.0,9.0,77,0.00,,,0.00,Wunderground v.1.15,2013-02-07 03:56:00,
2013-02-06 20:01:00,41.3,34.6,29.97,East,98,8.0,9.0,77,0.00,,,0.00,Wunderground v.1.15,2013-02-07 04:01:00,
2013-02-06 20:06:00,40.9,34.6,29.97,East,86,7.0,8.0,78,0.00,,,0.00,Wunderground v.1.15,2013-02-07 04:06:00,
2013-02-06 20:11:00,40.6,34.6,29.96,ENE,77,6.0,8.0,79,0.00,,,0.00,Wunderground v.1.15,2013-02-07 04:11:00,
2013-02-06 20:16:00,40.3,34.3,29.96,ENE,74,5.0,6.0,79,0.00,,,0.00,Wunderground v.1.15,2013-02-07 04:16:00,
2013-02-06 20:21:00,40.1,34.4,29.96,ENE,74,6.0,7.0,80,0.00,,,0.00,Wunderground v.1.15,2013-02-07 04:21:00,
2013-02-06 20:26:00,40.0,34.3,29.96,ENE,74,5.0,6.0,80,0.00,,,0.00,Wunderground v.1.15,2013-02-07 04:26:00,
2013-02-06 20:31:00,39.9,34.2,29.96,ENE,74,5.0,6.0,80,0.00,,,0.00,Wunderground v.1.15,2013-02-07 04:31:00,
2013-02-06 20:36:00,39.7,34.0,29.96,ENE,72,5.0,6.0,80,0.00,,,0.00,Wunderground v.1.15,2013-02-07 04:36:00,
2013-02-06 20:41:00,39.8,34.1,29.96,ENE,67,6.0,7.0,80,0.00,,,0.01,Wunderground v.1.15,2013-02-07 04:41:00,
2013-02-06 20:46:00,39.7,34.3,29.96,ENE,64,6.0,7.0,81,0.00,,,0.01,Wunderground v.1.15,2013-02-07 04:46:00,
2013-02-06 20:51:00,39.8,34.1,29.96,ENE,59,7.0,7.0,80,0.00,,,0.01,Wunderground v.1.15,2013-02-07 04:51:00,
2013-02-06 20:56:00,40.2,34.5,29.96,NE,53,2.0,8.0,80,0.00,,,0.01,Wunderground v.1.15,2013-02-07 04:56:00,
2013-02-06 21:00:00,40.4,34.4,29.96,NE,52,7.0,8.0,79,0.00,,,0.01,Wunderground v.1.15,2013-02-07 05:00:00,
2013-02-06 21:05:00,40.6,34.3,29.96,NE,51,6.0,7.0,78,0.00,,,0.01,Wunderground v.1.15,2013-02-07 05:05:00,
2013-02-06 21:10:00,40.8,34.5,29.95,NE,49,5.0,8.0,78,0.00,,,0.01,Wunderground v.1.15,2013-02-07 05:10:00,
2013-02-06 21:15:00,40.9,34.2,29.95,NE,49,7.0,7.0,77,0.00,,,0.01,Wunderground v.1.15,2013-02-07 05:15:00,
2013-02-06 21:20:00,41.0,34.0,29.95,NE,49,7.0,7.0,76,0.00,,,0.01,Wunderground v.1.15,2013-02-07 05:20:00,
2013-02-06 21:25:00,40.9,33.9,29.95,NE,49,7.0,8.0,76,0.00,,,0.01,Wunderground v.1.15,2013-02-07 05:25:00,
2013-02-06 21:30:00,40.8,33.8,29.95,NE,49,7.0,8.0,76,0.00,,,0.01,Wunderground v.1.15,2013-02-07 05:30:00,
2013-02-06 21:35:00,41.0,33.7,29.95,NE,55,7.0,8.0,75,0.00,,,0.01,Wunderground v.1.15,2013-02-07 05:35:00,
2013-02-06 21:40:00,40.2,33.2,29.95,NE,55,4.0,8.0,76,0.00,,,0.01,Wunderground v.1.15,2013-02-07 05:40:00,
2013-02-06 21:45:00,39.3,33.0,29.95,ENE,62,5.0,6.0,78,0.00,,,0.01,Wunderground v.1.15,2013-02-07 05:45:00,
2013-02-06 21:50:00,38.9,32.9,29.95,ENE,62,3.0,6.0,79,0.00,,,0.01,Wunderground v.1.15,2013-02-07 05:50:00,
2013-02-06 21:55:00,38.3,33.0,29.95,ENE,62,5.0,5.0,81,0.00,,,0.01,Wunderground v.1.15,2013-02-07 05:55:00,
2013-02-06 22:00:00,38.4,33.4,29.94,ENE,68,8.0,10.0,82,0.00,,,0.01,Wunderground v.1.15,2013-02-07 06:00:00,
2013-02-06 22:05:00,38.7,33.4,29.94,ENE,73,2.0,6.0,81,0.00,,,0.01,Wunderground v.1.15,2013-02-07 06:05:00,
2013-02-06 22:10:00,38.6,33.6,29.94,ENE,72,6.0,8.0,82,0.00,,,0.01,Wunderground v.1.15,2013-02-07 06:10:00,
2013-02-06 22:15:00,40.0,34.0,29.94,ENE,63,10.0,10.0,79,0.00,,,0.01,Wunderground v.1.15,2013-02-07 06:15:00,
2013-02-06 22:20:00,41.0,34.3,29.94,ENE,63,10.0,12.0,77,0.00,,,0.01,Wunderground v.1.15,2013-02-07 06:20:00,
2013-02-06 22:25:00,41.3,34.0,29.94,ENE,69,8.0,10.0,75,0.00,,,0.01,Wunderground v.1.15,2013-02-07 06:25:00,
2013-02-06 22:30:00,41.3,34.0,29.94,ENE,69,7.0,10.0,75,0.00,,,0.01,Wunderground v.1.15,2013-02-07 06:30:00,
2013-02-06 22:35:00,41.1,33.4,29.94,ENE,69,6.0,8.0,74,0.00,,,0.01,Wunderground v.1.15,2013-02-07 06:35:00,
2013-02-06 22:40:00,41.0,33.7,29.94,ENE,73,7.0,8.0,75,0.00,,,0.01,Wunderground v.1.15,2013-02-07 06:40:00,
2013-02-06 22:45:00,40.8,33.5,29.93,ENE,74,7.0,8.0,75,0.00,,,0.01,Wunderground v.1.15,2013-02-07 06:45:00,
2013-02-06 22:50:00,40.8,33.5,29.94,ENE,75,6.0,10.0,75,0.00,,,0.01,Wunderground v.1.15,2013-02-07 06:50:00,
2013-02-06 22:53:00,40.8,33.5,29.94,ENE,76,5.0,10.0,75,0.00,,,0.01,Wunderground v.1.15,2013-02-07 06:53:00,
2013-02-06 22:58:00,40.6,33.3,29.93,ENE,76,4.0,7.0,75,0.00,,,0.01,Wunderground v.1.15,2013-02-07 06:58:00,
2013-02-06 23:03:00,40.6,33.3,29.94,ENE,77,6.0,8.0,75,0.00,,,0.01,Wunderground v.1.15,2013-02-07 07:03:00,
2013-02-06 23:08:00,40.5,33.2,29.93,ENE,78,5.0,8.0,75,0.00,,,0.01,Wunderground v.1.15,2013-02-07 07:08:00,
2013-02-06 23:13:00,40.4,33.4,29.93,ENE,78,6.0,8.0,76,0.00,,,0.01,Wunderground v.1.15,2013-02-07 07:13:00,
2013-02-06 23:18:00,40.3,33.3,29.93,ENE,78,7.0,7.0,76,0.00,,,0.01,Wunderground v.1.15,2013-02-07 07:18:00,
2013-02-06 23:23:00,40.2,33.2,29.93,ENE,78,4.0,5.0,76,0.00,,,0.01,Wunderground v.1.15,2013-02-07 07:23:00,
2013-02-06 23:28:00,40.1,33.1,29.93,ENE,78,6.0,7.0,76,0.00,,,0.01,Wunderground v.1.15,2013-02-07 07:28:00,
2013-02-06 23:33:00,40.2,33.2,29.93,East,79,6.0,6.0,76,0.00,,,0.01,Wunderground v.1.15,2013-02-07 07:33:00,
2013-02-06 23:38:00,40.0,33.0,29.92,East,80,5.0,7.0,76,0.00,,,0.01,Wunderground v.1.15,2013-02-07 07:38:00,
2013-02-06 23:43:00,40.0,32.7,29.92,East,80,6.0,7.0,75,0.00,,,0.01,Wunderground v.1.15,2013-02-07 07:43:00,
2013-02-06 23:48:00,40.1,32.8,29.92,East,80,7.0,8.0,75,0.00,,,0.01,Wunderground v.1.15,2013-02-07 07:48:00,
2013-02-06 23:53:00,40.2,32.6,29.92,East,80,7.0,7.0,74,0.00,,,0.01,Wunderground v.1.15,2013-02-07 07:53:00,
2013-02-06 23:54:00,40.2,32.6,29.92,East,80,7.0,7.0,74,0.00,,,0.01,Wunderground v.1.15,2013-02-07 07:54:00,